Padiham, United Kingdom
Current Conditions -  °F | °C
As of 2:20 AM on Monday 22 Dec 2014 (Local Time) from EGNM Reporting Station
Broken Clouds Broken Clouds  
Wind Chill: 54°   Ceiling: 1800
Heat Index: 54°   Visibility: 6mi
Dew Point: 48°   Wind: 21mph
Humidity: 82%   Direction: 240°WSW
Pressure: 29.77"   Gusts: 33mph
Location:  53.8°N, 2.32°W
Report Text: EGNM 220220Z 24018G29KT 210V270 9999 BKN018 12/09 Q1008
Loading
Personal Weather Stations






























Interactive Weather Map New forecast layout! Learn more

10-Day Weather Forecast

Advertisements
Track Severe Weather on mobile